sensor_id;sensor_type;location;lat;lon;timestamp;temperature;humidity
75683;HTU21D;64295;44.772;39.872;2023-09-30T00:01:09;19.07;41.61
75683;HTU21D;64295;44.772;39.872;2023-09-30T00:03:40;19.05;41.64
75683;HTU21D;64295;44.772;39.872;2023-09-30T00:06:06;19.00;41.71
75683;HTU21D;64295;44.772;39.872;2023-09-30T00:08:32;18.99;41.74
75683;HTU21D;64295;44.772;39.872;2023-09-30T00:10:58;18.97;41.80
75683;HTU21D;64295;44.772;39.872;2023-09-30T00:13:24;18.98;41.79
75683;HTU21D;64295;44.772;39.872;2023-09-30T00:15:49;18.96;41.83
75683;HTU21D;64295;44.772;39.872;2023-09-30T00:18:15;18.91;41.92
75683;HTU21D;64295;44.772;39.872;2023-09-30T00:20:41;18.84;42.03
75683;HTU21D;64295;44.772;39.872;2023-09-30T00:23:08;18.81;42.08
75683;HTU21D;64295;44.772;39.872;2023-09-30T00:25:34;18.77;42.16
75683;HTU21D;64295;44.772;39.872;2023-09-30T00:28:00;18.76;42.19
75683;HTU21D;64295;44.772;39.872;2023-09-30T00:30:26;18.73;42.23
75683;HTU21D;64295;44.772;39.872;2023-09-30T00:32:52;18.76;42.23
75683;HTU21D;64295;44.772;39.872;2023-09-30T00:35:18;18.77;42.19
75683;HTU21D;64295;44.772;39.872;2023-09-30T00:37:44;18.76;42.23
75683;HTU21D;64295;44.772;39.872;2023-09-30T00:40:10;18.77;42.27
75683;HTU21D;64295;44.772;39.872;2023-09-30T00:42:41;18.76;42.30
75683;HTU21D;64295;44.772;39.872;2023-09-30T00:45:08;18.76;42.31
75683;HTU21D;64295;44.772;39.872;2023-09-30T00:47:37;18.76;42.33
75683;HTU21D;64295;44.772;39.872;2023-09-30T00:50:07;18.69;42.45
75683;HTU21D;64295;44.772;39.872;2023-09-30T00:52:35;18.62;42.56
75683;HTU21D;64295;44.772;39.872;2023-09-30T00:55:01;18.59;42.65
75683;HTU21D;64295;44.772;39.872;2023-09-30T00:57:29;18.57;42.68
75683;HTU21D;64295;44.772;39.872;2023-09-30T00:59:57;18.56;42.71
75683;HTU21D;64295;44.772;39.872;2023-09-30T01:02:23;18.57;42.71
75683;HTU21D;64295;44.772;39.872;2023-09-30T01:04:49;18.58;42.74
75683;HTU21D;64295;44.772;39.872;2023-09-30T01:07:15;18.57;42.78
75683;HTU21D;64295;44.772;39.872;2023-09-30T01:09:41;18.53;42.85
75683;HTU21D;64295;44.772;39.872;2023-09-30T01:12:07;18.49;42.97
75683;HTU21D;64295;44.772;39.872;2023-09-30T01:14:35;18.43;43.06
75683;HTU21D;64295;44.772;39.872;2023-09-30T01:17:01;18.42;43.11
75683;HTU21D;64295;44.772;39.872;2023-09-30T01:19:28;18.41;43.15
75683;HTU21D;64295;44.772;39.872;2023-09-30T01:21:55;18.41;43.18
75683;HTU21D;64295;44.772;39.872;2023-09-30T01:24:26;18.41;43.20
75683;HTU21D;64295;44.772;39.872;2023-09-30T01:26:52;18.39;43.22
75683;HTU21D;64295;44.772;39.872;2023-09-30T01:29:19;18.36;43.30
75683;HTU21D;64295;44.772;39.872;2023-09-30T01:31:45;18.33;43.38
75683;HTU21D;64295;44.772;39.872;2023-09-30T01:34:14;18.30;43.45
75683;HTU21D;64295;44.772;39.872;2023-09-30T01:36:43;18.26;43.53
75683;HTU21D;64295;44.772;39.872;2023-09-30T01:39:10;18.18;43.67
75683;HTU21D;64295;44.772;39.872;2023-09-30T01:41:37;18.12;43.77
75683;HTU21D;64295;44.772;39.872;2023-09-30T01:44:06;18.09;43.81
75683;HTU21D;64295;44.772;39.872;2023-09-30T01:46:32;18.06;43.90
75683;HTU21D;64295;44.772;39.872;2023-09-30T01:48:59;18.04;43.96
75683;HTU21D;64295;44.772;39.872;2023-09-30T01:51:25;18.02;44.02
75683;HTU21D;64295;44.772;39.872;2023-09-30T01:53:53;17.98;44.06
75683;HTU21D;64295;44.772;39.872;2023-09-30T01:56:19;17.95;44.14
75683;HTU21D;64295;44.772;39.872;2023-09-30T01:58:45;17.93;44.22
75683;HTU21D;64295;44.772;39.872;2023-09-30T02:01:11;17.95;44.19
75683;HTU21D;64295;44.772;39.872;2023-09-30T02:03:36;17.95;44.19
75683;HTU21D;64295;44.772;39.872;2023-09-30T02:06:03;17.94;44.20
75683;HTU21D;64295;44.772;39.872;2023-09-30T02:08:30;17.91;44.30
75683;HTU21D;64295;44.772;39.872;2023-09-30T02:10:56;17.92;44.32
75683;HTU21D;64295;44.772;39.872;2023-09-30T02:13:22;17.92;44.33
75683;HTU21D;64295;44.772;39.872;2023-09-30T02:15:48;17.92;44.38
75683;HTU21D;64295;44.772;39.872;2023-09-30T02:18:14;17.93;44.41
75683;HTU21D;64295;44.772;39.872;2023-09-30T02:20:40;17.95;44.44
75683;HTU21D;64295;44.772;39.872;2023-09-30T02:23:09;17.92;44.53
75683;HTU21D;64295;44.772;39.872;2023-09-30T02:25:39;17.89;44.60
75683;HTU21D;64295;44.772;39.872;2023-09-30T02:28:06;17.89;44.64
75683;HTU21D;64295;44.772;39.872;2023-09-30T02:30:32;17.88;44.67
75683;HTU21D;64295;44.772;39.872;2023-09-30T02:32:59;17.90;44.69
75683;HTU21D;64295;44.772;39.872;2023-09-30T02:35:25;17.87;44.79
75683;HTU21D;64295;44.772;39.872;2023-09-30T02:37:52;17.83;44.85
75683;HTU21D;64295;44.772;39.872;2023-09-30T02:40:19;17.76;45.01
75683;HTU21D;64295;44.772;39.872;2023-09-30T02:42:46;17.70;45.13
75683;HTU21D;64295;44.772;39.872;2023-09-30T02:45:12;17.63;45.22
75683;HTU21D;64295;44.772;39.872;2023-09-30T02:47:39;17.60;45.34
75683;HTU21D;64295;44.772;39.872;2023-09-30T02:50:08;17.56;45.41
75683;HTU21D;64295;44.772;39.872;2023-09-30T02:52:34;17.54;45.45
75683;HTU21D;64295;44.772;39.872;2023-09-30T02:55:03;17.52;45.49
75683;HTU21D;64295;44.772;39.872;2023-09-30T02:57:29;17.47;45.57
75683;HTU21D;64295;44.772;39.872;2023-09-30T02:59:55;17.45;45.61
75683;HTU21D;64295;44.772;39.872;2023-09-30T03:02:22;17.44;45.64
75683;HTU21D;64295;44.772;39.872;2023-09-30T03:04:49;17.44;45.68
75683;HTU21D;64295;44.772;39.872;2023-09-30T03:07:18;17.45;45.70
75683;HTU21D;64295;44.772;39.872;2023-09-30T03:09:45;17.41;45.75
75683;HTU21D;64295;44.772;39.872;2023-09-30T03:12:12;17.43;45.78
75683;HTU21D;64295;44.772;39.872;2023-09-30T03:14:38;17.35;45.90
75683;HTU21D;64295;44.772;39.872;2023-09-30T03:17:05;17.32;46.01
75683;HTU21D;64295;44.772;39.872;2023-09-30T03:19:37;17.30;46.04
75683;HTU21D;64295;44.772;39.872;2023-09-30T03:22:04;17.29;46.07
75683;HTU21D;64295;44.772;39.872;2023-09-30T03:24:30;17.28;46.14
75683;HTU21D;64295;44.772;39.872;2023-09-30T03:26:56;17.26;46.15
75683;HTU21D;64295;44.772;39.872;2023-09-30T03:29:23;17.26;46.18
75683;HTU21D;64295;44.772;39.872;2023-09-30T03:31:49;17.20;46.33
75683;HTU21D;64295;44.772;39.872;2023-09-30T03:34:16;17.20;46.33
75683;HTU21D;64295;44.772;39.872;2023-09-30T03:36:42;17.19;46.40
75683;HTU21D;64295;44.772;39.872;2023-09-30T03:39:09;17.20;46.40
75683;HTU21D;64295;44.772;39.872;2023-09-30T03:41:40;17.17;46.44
75683;HTU21D;64295;44.772;39.872;2023-09-30T03:44:06;17.15;46.48
75683;HTU21D;64295;44.772;39.872;2023-09-30T03:46:32;17.17;46.50
75683;HTU21D;64295;44.772;39.872;2023-09-30T03:48:57;17.17;46.48
75683;HTU21D;64295;44.772;39.872;2023-09-30T03:51:24;17.19;46.50
75683;HTU21D;64295;44.772;39.872;2023-09-30T03:53:51;17.21;46.47
75683;HTU21D;64295;44.772;39.872;2023-09-30T03:56:18;17.26;46.44
75683;HTU21D;64295;44.772;39.872;2023-09-30T03:58:44;17.34;46.41
75683;HTU21D;64295;44.772;39.872;2023-09-30T04:01:10;17.32;46.47
75683;HTU21D;64295;44.772;39.872;2023-09-30T04:03:37;17.36;46.46
75683;HTU21D;64295;44.772;39.872;2023-09-30T04:06:05;17.41;46.45
75683;HTU21D;64295;44.772;39.872;2023-09-30T04:08:33;17.47;46.41
75683;HTU21D;64295;44.772;39.872;2023-09-30T04:10:59;17.47;46.47
75683;HTU21D;64295;44.772;39.872;2023-09-30T04:13:26;17.46;46.54
75683;HTU21D;64295;44.772;39.872;2023-09-30T04:15:53;17.48;46.57
75683;HTU21D;64295;44.772;39.872;2023-09-30T04:18:19;17.50;46.60
75683;HTU21D;64295;44.772;39.872;2023-09-30T04:20:48;17.56;46.57
75683;HTU21D;64295;44.772;39.872;2023-09-30T04:23:14;17.65;46.49
75683;HTU21D;64295;44.772;39.872;2023-09-30T04:25:40;17.65;46.54
75683;HTU21D;64295;44.772;39.872;2023-09-30T04:28:08;17.68;46.57
75683;HTU21D;64295;44.772;39.872;2023-09-30T04:30:34;17.75;46.58
75683;HTU21D;64295;44.772;39.872;2023-09-30T04:33:00;17.82;46.54
75683;HTU21D;64295;44.772;39.872;2023-09-30T04:35:27;17.90;46.47
75683;HTU21D;64295;44.772;39.872;2023-09-30T04:37:53;17.97;46.44
75683;HTU21D;64295;44.772;39.872;2023-09-30T04:40:18;18.06;46.42
75683;HTU21D;64295;44.772;39.872;2023-09-30T04:42:47;18.13;46.39
75683;HTU21D;64295;44.772;39.872;2023-09-30T04:45:13;18.18;46.38
75683;HTU21D;64295;44.772;39.872;2023-09-30T04:47:42;18.22;46.44
75683;HTU21D;64295;44.772;39.872;2023-09-30T04:50:11;18.30;46.41
75683;HTU21D;64295;44.772;39.872;2023-09-30T04:52:38;18.35;46.43
75683;HTU21D;64295;44.772;39.872;2023-09-30T04:55:06;18.37;46.49
75683;HTU21D;64295;44.772;39.872;2023-09-30T04:57:32;18.43;46.50
75683;HTU21D;64295;44.772;39.872;2023-09-30T04:59:58;18.53;46.41
75683;HTU21D;64295;44.772;39.872;2023-09-30T05:02:24;18.61;46.41
75683;HTU21D;64295;44.772;39.872;2023-09-30T05:04:51;18.65;46.45
75683;HTU21D;64295;44.772;39.872;2023-09-30T05:07:18;18.69;46.47
75683;HTU21D;64295;44.772;39.872;2023-09-30T05:09:44;18.77;46.44
75683;HTU21D;64295;44.772;39.872;2023-09-30T05:12:10;18.84;46.44
75683;HTU21D;64295;44.772;39.872;2023-09-30T05:14:36;18.93;46.38
75683;HTU21D;64295;44.772;39.872;2023-09-30T05:17:07;18.99;46.39
75683;HTU21D;64295;44.772;39.872;2023-09-30T05:19:33;19.08;46.35
75683;HTU21D;64295;44.772;39.872;2023-09-30T05:22:00;19.15;46.32
75683;HTU21D;64295;44.772;39.872;2023-09-30T05:24:28;19.20;46.35
75683;HTU21D;64295;44.772;39.872;2023-09-30T05:26:55;19.25;46.38
75683;HTU21D;64295;44.772;39.872;2023-09-30T05:29:22;19.30;46.38
75683;HTU21D;64295;44.772;39.872;2023-09-30T05:31:48;19.37;46.38
75683;HTU21D;64295;44.772;39.872;2023-09-30T05:34:14;19.43;46.35
75683;HTU21D;64295;44.772;39.872;2023-09-30T05:36:40;19.50;46.31
75683;HTU21D;64295;44.772;39.872;2023-09-30T05:39:07;19.56;46.30
75683;HTU21D;64295;44.772;39.872;2023-09-30T05:41:36;19.66;46.28
75683;HTU21D;64295;44.772;39.872;2023-09-30T05:44:03;19.72;46.25
75683;HTU21D;64295;44.772;39.872;2023-09-30T05:46:32;19.83;46.22
75683;HTU21D;64295;44.772;39.872;2023-09-30T05:48:58;19.91;46.18
75683;HTU21D;64295;44.772;39.872;2023-09-30T05:51:24;20.01;46.13
75683;HTU21D;64295;44.772;39.872;2023-09-30T05:53:50;20.14;46.07
75683;HTU21D;64295;44.772;39.872;2023-09-30T05:56:16;20.22;46.03
75683;HTU21D;64295;44.772;39.872;2023-09-30T05:58:42;20.25;46.08
75683;HTU21D;64295;44.772;39.872;2023-09-30T06:01:08;20.29;46.16
75683;HTU21D;64295;44.772;39.872;2023-09-30T06:03:38;20.35;46.17
75683;HTU21D;64295;44.772;39.872;2023-09-30T06:06:10;20.40;46.08
75683;HTU21D;64295;44.772;39.872;2023-09-30T06:08:38;20.48;46.02
75683;HTU21D;64295;44.772;39.872;2023-09-30T06:11:04;20.59;45.96
75683;HTU21D;64295;44.772;39.872;2023-09-30T06:13:30;20.76;45.85
75683;HTU21D;64295;44.772;39.872;2023-09-30T06:15:58;20.90;45.74
75683;HTU21D;64295;44.772;39.872;2023-09-30T06:18:24;21.04;45.70
75683;HTU21D;64295;44.772;39.872;2023-09-30T06:20:50;21.17;45.64
75683;HTU21D;64295;44.772;39.872;2023-09-30T06:23:16;21.27;45.63
75683;HTU21D;64295;44.772;39.872;2023-09-30T06:25:43;21.34;45.63
75683;HTU21D;64295;44.772;39.872;2023-09-30T06:28:09;21.39;45.69
75683;HTU21D;64295;44.772;39.872;2023-09-30T06:30:35;21.49;45.70
75683;HTU21D;64295;44.772;39.872;2023-09-30T06:33:01;21.65;45.58
75683;HTU21D;64295;44.772;39.872;2023-09-30T06:35:33;21.75;45.60
75683;HTU21D;64295;44.772;39.872;2023-09-30T06:38:05;21.89;45.51
75683;HTU21D;64295;44.772;39.872;2023-09-30T06:40:32;22.02;45.32
75683;HTU21D;64295;44.772;39.872;2023-09-30T06:42:58;22.10;45.28
75683;HTU21D;64295;44.772;39.872;2023-09-30T06:45:24;22.14;45.33
75683;HTU21D;64295;44.772;39.872;2023-09-30T06:47:50;22.23;45.33
75683;HTU21D;64295;44.772;39.872;2023-09-30T06:50:15;22.31;45.35
75683;HTU21D;64295;44.772;39.872;2023-09-30T06:52:43;22.43;45.31
75683;HTU21D;64295;44.772;39.872;2023-09-30T06:55:11;22.52;45.32
75683;HTU21D;64295;44.772;39.872;2023-09-30T06:57:39;22.64;45.28
75683;HTU21D;64295;44.772;39.872;2023-09-30T07:00:13;22.81;45.18
75683;HTU21D;64295;44.772;39.872;2023-09-30T07:02:42;22.94;45.06
75683;HTU21D;64295;44.772;39.872;2023-09-30T07:05:09;23.02;45.04
75683;HTU21D;64295;44.772;39.872;2023-09-30T07:07:35;23.10;45.03
75683;HTU21D;64295;44.772;39.872;2023-09-30T07:10:01;23.17;45.03
75683;HTU21D;64295;44.772;39.872;2023-09-30T07:12:27;23.28;44.96
75683;HTU21D;64295;44.772;39.872;2023-09-30T07:14:53;23.37;44.94
75683;HTU21D;64295;44.772;39.872;2023-09-30T07:17:19;23.51;44.84
75683;HTU21D;64295;44.772;39.872;2023-09-30T07:19:45;23.70;44.65
75683;HTU21D;64295;44.772;39.872;2023-09-30T07:22:11;23.81;44.56
75683;HTU21D;64295;44.772;39.872;2023-09-30T07:24:38;23.91;44.51
75683;HTU21D;64295;44.772;39.872;2023-09-30T07:27:05;23.92;44.60
75683;HTU21D;64295;44.772;39.872;2023-09-30T07:29:32;24.01;44.58
75683;HTU21D;64295;44.772;39.872;2023-09-30T07:31:58;24.03;44.59
75683;HTU21D;64295;44.772;39.872;2023-09-30T07:34:24;24.12;44.58
75683;HTU21D;64295;44.772;39.872;2023-09-30T07:36:50;24.26;44.42
75683;HTU21D;64295;44.772;39.872;2023-09-30T07:39:17;24.30;44.43
75683;HTU21D;64295;44.772;39.872;2023-09-30T07:41:43;24.30;44.51
75683;HTU21D;64295;44.772;39.872;2023-09-30T07:44:09;24.46;44.38
75683;HTU21D;64295;44.772;39.872;2023-09-30T07:46:35;24.55;44.29
75683;HTU21D;64295;44.772;39.872;2023-09-30T07:49:01;24.68;44.13
75683;HTU21D;64295;44.772;39.872;2023-09-30T07:51:29;24.77;44.06
75683;HTU21D;64295;44.772;39.872;2023-09-30T07:53:55;24.93;43.91
75683;HTU21D;64295;44.772;39.872;2023-09-30T07:56:22;25.01;43.87
75683;HTU21D;64295;44.772;39.872;2023-09-30T07:58:49;25.14;43.76
75683;HTU21D;64295;44.772;39.872;2023-09-30T08:01:15;25.28;43.63
75683;HTU21D;64295;44.772;39.872;2023-09-30T08:03:41;25.36;43.56
75683;HTU21D;64295;44.772;39.872;2023-09-30T08:06:07;25.42;43.61
75683;HTU21D;64295;44.772;39.872;2023-09-30T08:08:35;25.57;43.44
75683;HTU21D;64295;44.772;39.872;2023-09-30T08:11:01;25.61;43.41
75683;HTU21D;64295;44.772;39.872;2023-09-30T08:13:27;25.59;43.51
75683;HTU21D;64295;44.772;39.872;2023-09-30T08:15:55;25.59;43.55
75683;HTU21D;64295;44.772;39.872;2023-09-30T08:18:22;25.67;43.50
75683;HTU21D;64295;44.772;39.872;2023-09-30T08:20:49;25.80;43.34
75683;HTU21D;64295;44.772;39.872;2023-09-30T08:23:15;25.98;43.13
75683;HTU21D;64295;44.772;39.872;2023-09-30T08:25:41;26.08;43.02
75683;HTU21D;64295;44.772;39.872;2023-09-30T08:28:07;26.13;42.97
75683;HTU21D;64295;44.772;39.872;2023-09-30T08:30:35;26.10;43.06
75683;HTU21D;64295;44.772;39.872;2023-09-30T08:33:02;26.05;43.20
75683;HTU21D;64295;44.772;39.872;2023-09-30T08:35:39;26.12;43.12
75683;HTU21D;64295;44.772;39.872;2023-09-30T08:38:05;26.19;43.06
75683;HTU21D;64295;44.772;39.872;2023-09-30T08:40:31;26.30;42.90
75683;HTU21D;64295;44.772;39.872;2023-09-30T08:42:57;26.35;42.87
75683;HTU21D;64295;44.772;39.872;2023-09-30T08:45:23;26.42;42.81
75683;HTU21D;64295;44.772;39.872;2023-09-30T08:47:50;26.62;42.58
75683;HTU21D;64295;44.772;39.872;2023-09-30T08:50:17;26.77;42.41
75683;HTU21D;64295;44.772;39.872;2023-09-30T08:52:44;26.86;42.36
75683;HTU21D;64295;44.772;39.872;2023-09-30T08:55:11;26.96;42.26
75683;HTU21D;64295;44.772;39.872;2023-09-30T08:57:39;27.05;42.23
75683;HTU21D;64295;44.772;39.872;2023-09-30T09:00:07;27.08;42.26
75683;HTU21D;64295;44.772;39.872;2023-09-30T09:02:37;27.09;42.26
75683;HTU21D;64295;44.772;39.872;2023-09-30T09:05:04;27.06;42.39
75683;HTU21D;64295;44.772;39.872;2023-09-30T09:07:30;27.16;42.29
75683;HTU21D;64295;44.772;39.872;2023-09-30T09:10:05;27.36;42.04
75683;HTU21D;64295;44.772;39.872;2023-09-30T09:12:34;27.49;41.92
75683;HTU21D;64295;44.772;39.872;2023-09-30T09:15:00;27.53;41.86
75683;HTU21D;64295;44.772;39.872;2023-09-30T09:17:42;27.60;41.85
75683;HTU21D;64295;44.772;39.872;2023-09-30T09:20:20;27.80;41.66
75683;HTU21D;64295;44.772;39.872;2023-09-30T09:22:47;27.78;41.73
75683;HTU21D;64295;44.772;39.872;2023-09-30T09:25:16;27.84;41.75
75683;HTU21D;64295;44.772;39.872;2023-09-30T09:27:42;27.95;41.64
75683;HTU21D;64295;44.772;39.872;2023-09-30T09:30:25;27.83;41.78
75683;HTU21D;64295;44.772;39.872;2023-09-30T09:35:25;27.98;41.59
75683;HTU21D;64295;44.772;39.872;2023-09-30T09:37:55;28.03;41.55
75683;HTU21D;64295;44.772;39.872;2023-09-30T09:40:27;28.16;41.39
75683;HTU21D;64295;44.772;39.872;2023-09-30T09:42:54;28.30;41.20
75683;HTU21D;64295;44.772;39.872;2023-09-30T09:45:22;28.45;41.06
75683;HTU21D;64295;44.772;39.872;2023-09-30T09:47:49;28.58;40.91
75683;HTU21D;64295;44.772;39.872;2023-09-30T09:50:17;28.76;40.69
75683;HTU21D;64295;44.772;39.872;2023-09-30T09:52:43;28.83;40.61
75683;HTU21D;64295;44.772;39.872;2023-09-30T09:55:11;28.83;40.62
75683;HTU21D;64295;44.772;39.872;2023-09-30T09:57:37;28.79;40.77
75683;HTU21D;64295;44.772;39.872;2023-09-30T10:00:04;28.99;40.55
75683;HTU21D;64295;44.772;39.872;2023-09-30T10:02:39;29.11;40.36
75683;HTU21D;64295;44.772;39.872;2023-09-30T10:05:05;29.11;40.36
75683;HTU21D;64295;44.772;39.872;2023-09-30T10:07:46;29.19;40.26
75683;HTU21D;64295;44.772;39.872;2023-09-30T10:10:16;29.24;40.22
75683;HTU21D;64295;44.772;39.872;2023-09-30T10:12:43;29.29;40.19
75683;HTU21D;64295;44.772;39.872;2023-09-30T10:20:34;29.42;39.99
75683;HTU21D;64295;44.772;39.872;2023-09-30T10:25:46;29.43;39.92
75683;HTU21D;64295;44.772;39.872;2023-09-30T10:31:12;29.44;39.84
75683;HTU21D;64295;44.772;39.872;2023-09-30T10:39:00;29.51;39.72
75683;HTU21D;64295;44.772;39.872;2023-09-30T10:46:52;29.64;39.46
75683;HTU21D;64295;44.772;39.872;2023-09-30T10:51:57;29.88;39.17
75683;HTU21D;64295;44.772;39.872;2023-09-30T10:54:30;29.96;39.00
75683;HTU21D;64295;44.772;39.872;2023-09-30T10:56:57;29.88;39.14
75683;HTU21D;64295;44.772;39.872;2023-09-30T10:59:30;29.73;39.32
75683;HTU21D;64295;44.772;39.872;2023-09-30T11:01:56;29.72;39.30
75683;HTU21D;64295;44.772;39.872;2023-09-30T11:04:22;29.71;39.27
75683;HTU21D;64295;44.772;39.872;2023-09-30T11:06:48;29.73;39.22
75683;HTU21D;64295;44.772;39.872;2023-09-30T11:09:20;29.76;39.11
75683;HTU21D;64295;44.772;39.872;2023-09-30T11:11:49;29.73;39.10
75683;HTU21D;64295;44.772;39.872;2023-09-30T11:14:28;29.72;39.06
75683;HTU21D;64295;44.772;39.872;2023-09-30T11:16:57;29.83;38.98
75683;HTU21D;64295;44.772;39.872;2023-09-30T11:19:23;29.90;38.82
75683;HTU21D;64295;44.772;39.872;2023-09-30T11:21:54;29.88;38.83
75683;HTU21D;64295;44.772;39.872;2023-09-30T11:24:20;29.87;38.85
75683;HTU21D;64295;44.772;39.872;2023-09-30T11:26:47;29.87;38.75
75683;HTU21D;64295;44.772;39.872;2023-09-30T11:29:15;29.80;38.78
75683;HTU21D;64295;44.772;39.872;2023-09-30T11:31:45;29.79;38.74
75683;HTU21D;64295;44.772;39.872;2023-09-30T11:34:12;29.70;38.77
75683;HTU21D;64295;44.772;39.872;2023-09-30T11:36:52;29.66;38.75
75683;HTU21D;64295;44.772;39.872;2023-09-30T11:39:29;29.64;38.68
75683;HTU21D;64295;44.772;39.872;2023-09-30T11:41:56;29.60;38.69
75683;HTU21D;64295;44.772;39.872;2023-09-30T11:44:26;29.54;38.72
75683;HTU21D;64295;44.772;39.872;2023-09-30T11:46:57;29.64;38.53
75683;HTU21D;64295;44.772;39.872;2023-09-30T11:49:33;29.64;38.44
75683;HTU21D;64295;44.772;39.872;2023-09-30T11:52:02;29.61;38.43
75683;HTU21D;64295;44.772;39.872;2023-09-30T11:54:33;29.56;38.45
75683;HTU21D;64295;44.772;39.872;2023-09-30T11:57:00;29.52;38.40
75683;HTU21D;64295;44.772;39.872;2023-09-30T11:59:27;29.51;38.36
75683;HTU21D;64295;44.772;39.872;2023-09-30T12:01:53;29.58;38.20
75683;HTU21D;64295;44.772;39.872;2023-09-30T12:04:18;29.62;38.08
75683;HTU21D;64295;44.772;39.872;2023-09-30T12:06:45;29.60;38.02
75683;HTU21D;64295;44.772;39.872;2023-09-30T12:09:17;29.65;37.88
75683;HTU21D;64295;44.772;39.872;2023-09-30T12:11:51;29.61;37.85
75683;HTU21D;64295;44.772;39.872;2023-09-30T12:14:17;29.61;37.82
75683;HTU21D;64295;44.772;39.872;2023-09-30T12:16:43;29.62;37.75
75683;HTU21D;64295;44.772;39.872;2023-09-30T12:19:14;29.60;37.71
75683;HTU21D;64295;44.772;39.872;2023-09-30T12:21:41;29.56;37.68
75683;HTU21D;64295;44.772;39.872;2023-09-30T12:24:08;29.52;37.66
75683;HTU21D;64295;44.772;39.872;2023-09-30T12:26:38;29.53;37.55
75683;HTU21D;64295;44.772;39.872;2023-09-30T12:29:06;29.48;37.55
75683;HTU21D;64295;44.772;39.872;2023-09-30T12:31:32;29.51;37.46
75683;HTU21D;64295;44.772;39.872;2023-09-30T12:33:59;29.50;37.37
75683;HTU21D;64295;44.772;39.872;2023-09-30T12:36:25;29.45;37.31
75683;HTU21D;64295;44.772;39.872;2023-09-30T12:38:51;29.39;37.24
75683;HTU21D;64295;44.772;39.872;2023-09-30T12:41:17;29.32;37.17
75683;HTU21D;64295;44.772;39.872;2023-09-30T12:43:45;29.28;37.13
75683;HTU21D;64295;44.772;39.872;2023-09-30T12:46:11;29.29;37.02
75683;HTU21D;64295;44.772;39.872;2023-09-30T12:48:40;29.32;36.92
75683;HTU21D;64295;44.772;39.872;2023-09-30T12:51:05;29.31;36.87
75683;HTU21D;64295;44.772;39.872;2023-09-30T12:53:34;29.28;36.77
75683;HTU21D;64295;44.772;39.872;2023-09-30T12:56:00;29.26;36.75
75683;HTU21D;64295;44.772;39.872;2023-09-30T12:58:27;29.23;36.69
75683;HTU21D;64295;44.772;39.872;2023-09-30T13:00:56;29.19;36.66
75683;HTU21D;64295;44.772;39.872;2023-09-30T13:03:23;29.09;36.61
75683;HTU21D;64295;44.772;39.872;2023-09-30T13:05:49;29.03;36.65
75683;HTU21D;64295;44.772;39.872;2023-09-30T13:08:16;29.04;36.58
75683;HTU21D;64295;44.772;39.872;2023-09-30T13:10:42;29.08;36.45
75683;HTU21D;64295;44.772;39.872;2023-09-30T13:13:09;29.04;36.43
75683;HTU21D;64295;44.772;39.872;2023-09-30T13:15:35;29.00;36.42
75683;HTU21D;64295;44.772;39.872;2023-09-30T13:18:03;28.98;36.34
75683;HTU21D;64295;44.772;39.872;2023-09-30T13:20:31;28.89;36.38
75683;HTU21D;64295;44.772;39.872;2023-09-30T13:22:57;28.82;36.42
75683;HTU21D;64295;44.772;39.872;2023-09-30T13:25:22;28.79;36.42
75683;HTU21D;64295;44.772;39.872;2023-09-30T13:27:48;28.82;36.33
75683;HTU21D;64295;44.772;39.872;2023-09-30T13:30:14;28.85;36.24
75683;HTU21D;64295;44.772;39.872;2023-09-30T13:32:40;28.79;36.22
75683;HTU21D;64295;44.772;39.872;2023-09-30T13:35:07;28.72;36.30
75683;HTU21D;64295;44.772;39.872;2023-09-30T13:37:33;28.61;36.36
75683;HTU21D;64295;44.772;39.872;2023-09-30T13:40:02;28.58;36.34
75683;HTU21D;64295;44.772;39.872;2023-09-30T13:42:30;28.57;36.30
75683;HTU21D;64295;44.772;39.872;2023-09-30T13:44:56;28.58;36.24
75683;HTU21D;64295;44.772;39.872;2023-09-30T13:47:26;28.59;36.17
75683;HTU21D;64295;44.772;39.872;2023-09-30T13:49:52;28.55;36.11
75683;HTU21D;64295;44.772;39.872;2023-09-30T13:52:18;28.44;36.22
75683;HTU21D;64295;44.772;39.872;2023-09-30T13:54:44;28.38;36.27
75683;HTU21D;64295;44.772;39.872;2023-09-30T13:57:10;28.33;36.28
75683;HTU21D;64295;44.772;39.872;2023-09-30T13:59:36;28.25;36.35
75683;HTU21D;64295;44.772;39.872;2023-09-30T14:02:02;28.17;36.38
75683;HTU21D;64295;44.772;39.872;2023-09-30T14:04:31;28.19;36.30
75683;HTU21D;64295;44.772;39.872;2023-09-30T14:06:58;28.16;36.25
75683;HTU21D;64295;44.772;39.872;2023-09-30T14:09:26;28.15;36.20
75683;HTU21D;64295;44.772;39.872;2023-09-30T14:11:53;28.08;36.18
75683;HTU21D;64295;44.772;39.872;2023-09-30T14:14:19;28.02;36.24
75683;HTU21D;64295;44.772;39.872;2023-09-30T14:16:46;27.94;36.30
75683;HTU21D;64295;44.772;39.872;2023-09-30T14:19:13;27.82;36.38
75683;HTU21D;64295;44.772;39.872;2023-09-30T14:21:40;27.70;36.51
75683;HTU21D;64295;44.772;39.872;2023-09-30T14:24:07;27.59;36.59
75683;HTU21D;64295;44.772;39.872;2023-09-30T14:26:33;27.51;36.66
75683;HTU21D;64295;44.772;39.872;2023-09-30T14:28:59;27.42;36.74
75683;HTU21D;64295;44.772;39.872;2023-09-30T14:31:26;27.31;36.84
75683;HTU21D;64295;44.772;39.872;2023-09-30T14:33:52;27.22;36.91
75683;HTU21D;64295;44.772;39.872;2023-09-30T14:36:18;27.10;36.99
75683;HTU21D;64295;44.772;39.872;2023-09-30T14:38:45;27.02;37.04
75683;HTU21D;64295;44.772;39.872;2023-09-30T14:41:11;26.96;37.04
75683;HTU21D;64295;44.772;39.872;2023-09-30T14:43:38;26.86;37.08
75683;HTU21D;64295;44.772;39.872;2023-09-30T14:46:04;26.79;37.11
75683;HTU21D;64295;44.772;39.872;2023-09-30T14:48:31;26.69;37.16
75683;HTU21D;64295;44.772;39.872;2023-09-30T14:50:57;26.62;37.19
75683;HTU21D;64295;44.772;39.872;2023-09-30T14:53:23;26.57;37.20
75683;HTU21D;64295;44.772;39.872;2023-09-30T14:55:50;26.48;37.25
75683;HTU21D;64295;44.772;39.872;2023-09-30T14:58:16;26.38;37.32
75683;HTU21D;64295;44.772;39.872;2023-09-30T15:00:42;26.32;37.35
75683;HTU21D;64295;44.772;39.872;2023-09-30T15:03:08;26.26;37.37
75683;HTU21D;64295;44.772;39.872;2023-09-30T15:05:34;26.21;37.42
75683;HTU21D;64295;44.772;39.872;2023-09-30T15:08:01;26.13;37.46
75683;HTU21D;64295;44.772;39.872;2023-09-30T15:10:29;26.06;37.51
75683;HTU21D;64295;44.772;39.872;2023-09-30T15:12:55;25.99;37.56
75683;HTU21D;64295;44.772;39.872;2023-09-30T15:15:23;25.93;37.62
75683;HTU21D;64295;44.772;39.872;2023-09-30T15:17:50;25.87;37.67
75683;HTU21D;64295;44.772;39.872;2023-09-30T15:20:17;25.81;37.70
75683;HTU21D;64295;44.772;39.872;2023-09-30T15:22:43;25.75;37.76
75683;HTU21D;64295;44.772;39.872;2023-09-30T15:25:09;25.71;37.79
75683;HTU21D;64295;44.772;39.872;2023-09-30T15:27:36;25.64;37.88
75683;HTU21D;64295;44.772;39.872;2023-09-30T15:30:02;25.57;37.94